sensor_id;sensor_type;location;lat;lon;timestamp;P1;durP1;ratioP1;P2;durP2;ratioP2
51048;SDS011;37084;55.228;36.450;2024-01-10T00:00:30;2.17;;;1.70;;
51048;SDS011;37084;55.228;36.450;2024-01-10T00:03:31;2.20;;;2.10;;
51048;SDS011;37084;55.228;36.450;2024-01-10T00:06:33;1.85;;;1.75;;
51048;SDS011;37084;55.228;36.450;2024-01-10T00:09:34;1.98;;;1.88;;
51048;SDS011;37084;55.228;36.450;2024-01-10T00:12:35;2.42;;;1.50;;
51048;SDS011;37084;55.228;36.450;2024-01-10T00:15:38;1.85;;;1.80;;
51048;SDS011;37084;55.228;36.450;2024-01-10T00:18:39;1.88;;;1.77;;
51048;SDS011;37084;55.228;36.450;2024-01-10T00:21:43;1.52;;;1.42;;
51048;SDS011;37084;55.228;36.450;2024-01-10T00:24:44;1.25;;;1.25;;
51048;SDS011;37084;55.228;36.450;2024-01-10T00:27:45;1.70;;;1.60;;
51048;SDS011;37084;55.228;36.450;2024-01-10T00:30:46;1.88;;;1.77;;
51048;SDS011;37084;55.228;36.450;2024-01-10T00:33:50;1.35;;;1.35;;
51048;SDS011;37084;55.228;36.450;2024-01-10T00:36:52;1.58;;;1.58;;
51048;SDS011;37084;55.228;36.450;2024-01-10T00:39:54;1.45;;;1.27;;
51048;SDS011;37084;55.228;36.450;2024-01-10T00:42:56;1.55;;;1.45;;
51048;SDS011;37084;55.228;36.450;2024-01-10T00:45:57;0.73;;;0.73;;
51048;SDS011;37084;55.228;36.450;2024-01-10T00:48:58;1.40;;;1.40;;
51048;SDS011;37084;55.228;36.450;2024-01-10T00:52:00;1.17;;;1.17;;
51048;SDS011;37084;55.228;36.450;2024-01-10T00:55:02;2.00;;;1.90;;
51048;SDS011;37084;55.228;36.450;2024-01-10T00:58:05;1.38;;;1.27;;
51048;SDS011;37084;55.228;36.450;2024-01-10T01:01:06;2.00;;;1.92;;
51048;SDS011;37084;55.228;36.450;2024-01-10T01:04:08;1.45;;;1.35;;
51048;SDS011;37084;55.228;36.450;2024-01-10T01:07:09;1.27;;;1.27;;
51048;SDS011;37084;55.228;36.450;2024-01-10T01:10:10;1.40;;;1.40;;
51048;SDS011;37084;55.228;36.450;2024-01-10T01:13:11;2.17;;;2.17;;
51048;SDS011;37084;55.228;36.450;2024-01-10T01:16:13;2.25;;;2.15;;
51048;SDS011;37084;55.228;36.450;2024-01-10T01:19:14;1.23;;;1.23;;
51048;SDS011;37084;55.228;36.450;2024-01-10T01:22:15;1.48;;;1.48;;
51048;SDS011;37084;55.228;36.450;2024-01-10T01:25:16;1.80;;;1.70;;
51048;SDS011;37084;55.228;36.450;2024-01-10T01:28:18;1.67;;;1.67;;
51048;SDS011;37084;55.228;36.450;2024-01-10T01:31:20;1.45;;;1.45;;
51048;SDS011;37084;55.228;36.450;2024-01-10T01:34:22;1.75;;;1.75;;
51048;SDS011;37084;55.228;36.450;2024-01-10T01:37:23;0.73;;;0.73;;
51048;SDS011;37084;55.228;36.450;2024-01-10T01:40:24;1.40;;;1.40;;
51048;SDS011;37084;55.228;36.450;2024-01-10T01:43:25;1.40;;;1.40;;
51048;SDS011;37084;55.228;36.450;2024-01-10T01:46:27;1.40;;;1.40;;
51048;SDS011;37084;55.228;36.450;2024-01-10T01:49:28;1.85;;;1.85;;
51048;SDS011;37084;55.228;36.450;2024-01-10T01:52:29;1.40;;;1.40;;
51048;SDS011;37084;55.228;36.450;2024-01-10T01:55:32;1.70;;;1.70;;
51048;SDS011;37084;55.228;36.450;2024-01-10T01:58:33;1.33;;;1.23;;
51048;SDS011;37084;55.228;36.450;2024-01-10T02:01:35;1.55;;;1.55;;
51048;SDS011;37084;55.228;36.450;2024-01-10T02:04:36;1.38;;;1.38;;
51048;SDS011;37084;55.228;36.450;2024-01-10T02:07:38;1.15;;;1.15;;
51048;SDS011;37084;55.228;36.450;2024-01-10T02:10:39;1.15;;;1.15;;
51048;SDS011;37084;55.228;36.450;2024-01-10T02:13:40;0.70;;;0.70;;
51048;SDS011;37084;55.228;36.450;2024-01-10T02:16:42;1.67;;;1.67;;
51048;SDS011;37084;55.228;36.450;2024-01-10T02:19:43;0.82;;;0.82;;
51048;SDS011;37084;55.228;36.450;2024-01-10T02:22:44;1.25;;;1.25;;
51048;SDS011;37084;55.228;36.450;2024-01-10T02:25:46;1.23;;;1.23;;
51048;SDS011;37084;55.228;36.450;2024-01-10T02:28:47;1.35;;;1.35;;
51048;SDS011;37084;55.228;36.450;2024-01-10T02:31:49;1.33;;;1.33;;
51048;SDS011;37084;55.228;36.450;2024-01-10T02:34:50;1.55;;;1.55;;
51048;SDS011;37084;55.228;36.450;2024-01-10T02:37:52;1.48;;;1.48;;
51048;SDS011;37084;55.228;36.450;2024-01-10T02:40:55;1.30;;;1.30;;
51048;SDS011;37084;55.228;36.450;2024-01-10T02:43:57;1.50;;;1.40;;
51048;SDS011;37084;55.228;36.450;2024-01-10T02:47:01;1.77;;;1.77;;
51048;SDS011;37084;55.228;36.450;2024-01-10T02:50:03;1.65;;;1.55;;
51048;SDS011;37084;55.228;36.450;2024-01-10T02:53:05;1.50;;;1.50;;
51048;SDS011;37084;55.228;36.450;2024-01-10T02:56:06;1.45;;;1.45;;
51048;SDS011;37084;55.228;36.450;2024-01-10T02:59:07;1.27;;;1.27;;
51048;SDS011;37084;55.228;36.450;2024-01-10T03:02:09;1.35;;;1.35;;
51048;SDS011;37084;55.228;36.450;2024-01-10T03:05:10;1.25;;;1.25;;
51048;SDS011;37084;55.228;36.450;2024-01-10T03:08:11;1.38;;;1.27;;
51048;SDS011;37084;55.228;36.450;2024-01-10T03:11:12;1.35;;;1.35;;
51048;SDS011;37084;55.228;36.450;2024-01-10T03:14:14;1.35;;;1.35;;
51048;SDS011;37084;55.228;36.450;2024-01-10T03:17:15;1.63;;;1.63;;
51048;SDS011;37084;55.228;36.450;2024-01-10T03:20:16;1.40;;;1.40;;
51048;SDS011;37084;55.228;36.450;2024-01-10T03:23:18;1.33;;;1.33;;
51048;SDS011;37084;55.228;36.450;2024-01-10T03:26:19;3.25;;;1.45;;
51048;SDS011;37084;55.228;36.450;2024-01-10T03:29:20;1.13;;;1.13;;
51048;SDS011;37084;55.228;36.450;2024-01-10T03:32:21;1.50;;;1.50;;
51048;SDS011;37084;55.228;36.450;2024-01-10T03:35:23;1.42;;;1.42;;
51048;SDS011;37084;55.228;36.450;2024-01-10T03:38:24;1.30;;;1.30;;
51048;SDS011;37084;55.228;36.450;2024-01-10T03:41:25;1.40;;;1.40;;
51048;SDS011;37084;55.228;36.450;2024-01-10T03:44:27;1.27;;;1.27;;
51048;SDS011;37084;55.228;36.450;2024-01-10T03:47:28;1.30;;;1.30;;
51048;SDS011;37084;55.228;36.450;2024-01-10T03:50:29;1.40;;;1.40;;
51048;SDS011;37084;55.228;36.450;2024-01-10T03:53:31;1.40;;;1.40;;
51048;SDS011;37084;55.228;36.450;2024-01-10T03:56:32;1.88;;;1.77;;
51048;SDS011;37084;55.228;36.450;2024-01-10T03:59:34;1.92;;;1.73;;
51048;SDS011;37084;55.228;36.450;2024-01-10T04:02:36;1.48;;;1.45;;
51048;SDS011;37084;55.228;36.450;2024-01-10T04:05:38;2.15;;;2.05;;
51048;SDS011;37084;55.228;36.450;2024-01-10T04:08:39;2.10;;;2.00;;
51048;SDS011;37084;55.228;36.450;2024-01-10T04:11:41;1.27;;;1.27;;
51048;SDS011;37084;55.228;36.450;2024-01-10T04:14:42;1.88;;;1.83;;
51048;SDS011;37084;55.228;36.450;2024-01-10T04:17:43;1.35;;;1.35;;
51048;SDS011;37084;55.228;36.450;2024-01-10T04:20:44;1.35;;;1.35;;
51048;SDS011;37084;55.228;36.450;2024-01-10T04:23:46;1.50;;;1.50;;
51048;SDS011;37084;55.228;36.450;2024-01-10T04:26:47;1.67;;;1.67;;
51048;SDS011;37084;55.228;36.450;2024-01-10T04:29:48;0.65;;;0.60;;
51048;SDS011;37084;55.228;36.450;2024-01-10T04:32:49;1.65;;;1.65;;
51048;SDS011;37084;55.228;36.450;2024-01-10T04:35:51;1.75;;;1.75;;
51048;SDS011;37084;55.228;36.450;2024-01-10T04:38:52;1.45;;;1.45;;
51048;SDS011;37084;55.228;36.450;2024-01-10T04:41:53;1.35;;;1.33;;
51048;SDS011;37084;55.228;36.450;2024-01-10T04:44:55;0.70;;;0.70;;
51048;SDS011;37084;55.228;36.450;2024-01-10T04:47:57;1.25;;;1.25;;
51048;SDS011;37084;55.228;36.450;2024-01-10T04:50:58;1.73;;;1.73;;
51048;SDS011;37084;55.228;36.450;2024-01-10T04:54:00;1.55;;;1.55;;
51048;SDS011;37084;55.228;36.450;2024-01-10T04:57:01;1.42;;;1.42;;
51048;SDS011;37084;55.228;36.450;2024-01-10T05:00:03;1.40;;;1.40;;
51048;SDS011;37084;55.228;36.450;2024-01-10T05:03:05;2.70;;;2.60;;
51048;SDS011;37084;55.228;36.450;2024-01-10T05:06:07;1.42;;;1.42;;
51048;SDS011;37084;55.228;36.450;2024-01-10T05:09:08;1.58;;;1.55;;
51048;SDS011;37084;55.228;36.450;2024-01-10T05:12:10;1.10;;;1.10;;
51048;SDS011;37084;55.228;36.450;2024-01-10T05:15:11;1.38;;;1.38;;
51048;SDS011;37084;55.228;36.450;2024-01-10T05:18:13;1.58;;;1.48;;
51048;SDS011;37084;55.228;36.450;2024-01-10T05:21:14;1.52;;;1.50;;
51048;SDS011;37084;55.228;36.450;2024-01-10T05:24:15;1.92;;;1.85;;
51048;SDS011;37084;55.228;36.450;2024-01-10T05:27:16;1.65;;;1.65;;
51048;SDS011;37084;55.228;36.450;2024-01-10T05:30:18;1.50;;;1.40;;
51048;SDS011;37084;55.228;36.450;2024-01-10T05:33:20;1.65;;;1.55;;
51048;SDS011;37084;55.228;36.450;2024-01-10T05:36:21;2.00;;;1.90;;
51048;SDS011;37084;55.228;36.450;2024-01-10T05:39:23;2.35;;;2.25;;
51048;SDS011;37084;55.228;36.450;2024-01-10T05:42:25;2.00;;;1.90;;
51048;SDS011;37084;55.228;36.450;2024-01-10T05:45:27;2.03;;;1.92;;
51048;SDS011;37084;55.228;36.450;2024-01-10T05:48:28;3.17;;;1.95;;
51048;SDS011;37084;55.228;36.450;2024-01-10T05:51:31;1.95;;;1.85;;
51048;SDS011;37084;55.228;36.450;2024-01-10T05:54:33;1.85;;;1.75;;
51048;SDS011;37084;55.228;36.450;2024-01-10T05:57:34;2.33;;;2.22;;
51048;SDS011;37084;55.228;36.450;2024-01-10T06:00:36;1.67;;;1.58;;
51048;SDS011;37084;55.228;36.450;2024-01-10T06:03:38;2.13;;;2.03;;
51048;SDS011;37084;55.228;36.450;2024-01-10T06:06:39;1.85;;;1.75;;
51048;SDS011;37084;55.228;36.450;2024-01-10T06:09:41;1.33;;;1.13;;
51048;SDS011;37084;55.228;36.450;2024-01-10T06:12:44;2.20;;;2.00;;
51048;SDS011;37084;55.228;36.450;2024-01-10T06:15:49;2.67;;;2.47;;
51048;SDS011;37084;55.228;36.450;2024-01-10T06:18:51;2.20;;;2.05;;
51048;SDS011;37084;55.228;36.450;2024-01-10T06:21:52;2.45;;;2.30;;
51048;SDS011;37084;55.228;36.450;2024-01-10T06:24:53;2.20;;;2.10;;
51048;SDS011;37084;55.228;36.450;2024-01-10T06:27:54;2.63;;;2.53;;
51048;SDS011;37084;55.228;36.450;2024-01-10T06:30:56;2.75;;;2.45;;
51048;SDS011;37084;55.228;36.450;2024-01-10T06:33:57;2.72;;;2.53;;
51048;SDS011;37084;55.228;36.450;2024-01-10T06:36:59;2.38;;;2.20;;
51048;SDS011;37084;55.228;36.450;2024-01-10T06:40:01;3.15;;;2.95;;
51048;SDS011;37084;55.228;36.450;2024-01-10T06:43:05;2.63;;;2.42;;
51048;SDS011;37084;55.228;36.450;2024-01-10T06:46:09;2.50;;;2.30;;
51048;SDS011;37084;55.228;36.450;2024-01-10T06:49:11;2.90;;;2.70;;
51048;SDS011;37084;55.228;36.450;2024-01-10T06:52:14;2.35;;;2.15;;
51048;SDS011;37084;55.228;36.450;2024-01-10T06:55:15;2.72;;;2.53;;
51048;SDS011;37084;55.228;36.450;2024-01-10T06:58:16;3.03;;;2.70;;
51048;SDS011;37084;55.228;36.450;2024-01-10T07:01:18;3.30;;;2.70;;
51048;SDS011;37084;55.228;36.450;2024-01-10T07:04:22;3.70;;;2.60;;
51048;SDS011;37084;55.228;36.450;2024-01-10T07:07:25;3.38;;;2.83;;
51048;SDS011;37084;55.228;36.450;2024-01-10T07:10:28;4.15;;;3.03;;
51048;SDS011;37084;55.228;36.450;2024-01-10T07:13:30;2.55;;;2.35;;
51048;SDS011;37084;55.228;36.450;2024-01-10T07:16:33;3.13;;;2.30;;
51048;SDS011;37084;55.228;36.450;2024-01-10T07:19:35;4.25;;;2.95;;
51048;SDS011;37084;55.228;36.450;2024-01-10T07:22:36;4.88;;;3.30;;
51048;SDS011;37084;55.228;36.450;2024-01-10T07:25:40;3.95;;;3.35;;
51048;SDS011;37084;55.228;36.450;2024-01-10T07:28:41;3.90;;;3.38;;
51048;SDS011;37084;55.228;36.450;2024-01-10T07:31:42;4.28;;;3.08;;
51048;SDS011;37084;55.228;36.450;2024-01-10T07:34:43;3.38;;;3.08;;
51048;SDS011;37084;55.228;36.450;2024-01-10T07:37:46;4.50;;;3.75;;
51048;SDS011;37084;55.228;36.450;2024-01-10T07:40:47;5.18;;;3.33;;
51048;SDS011;37084;55.228;36.450;2024-01-10T07:43:49;4.28;;;3.65;;
51048;SDS011;37084;55.228;36.450;2024-01-10T07:46:50;3.90;;;3.13;;
51048;SDS011;37084;55.228;36.450;2024-01-10T07:49:54;3.30;;;3.00;;
51048;SDS011;37084;55.228;36.450;2024-01-10T07:52:56;3.17;;;2.78;;
51048;SDS011;37084;55.228;36.450;2024-01-10T07:55:57;3.42;;;3.13;;
51048;SDS011;37084;55.228;36.450;2024-01-10T07:58:58;5.05;;;3.78;;
51048;SDS011;37084;55.228;36.450;2024-01-10T08:02:00;4.28;;;3.65;;
51048;SDS011;37084;55.228;36.450;2024-01-10T08:05:02;5.45;;;3.90;;
51048;SDS011;37084;55.228;36.450;2024-01-10T08:08:09;3.58;;;3.28;;
51048;SDS011;37084;55.228;36.450;2024-01-10T08:11:11;4.30;;;3.50;;
51048;SDS011;37084;55.228;36.450;2024-01-10T08:14:12;4.85;;;3.35;;
51048;SDS011;37084;55.228;36.450;2024-01-10T08:17:13;4.53;;;3.75;;
51048;SDS011;37084;55.228;36.450;2024-01-10T08:20:15;4.50;;;3.97;;
51048;SDS011;37084;55.228;36.450;2024-01-10T08:23:20;5.38;;;3.60;;
51048;SDS011;37084;55.228;36.450;2024-01-10T08:26:21;5.15;;;4.07;;
51048;SDS011;37084;55.228;36.450;2024-01-10T08:29:22;5.18;;;3.00;;
51048;SDS011;37084;55.228;36.450;2024-01-10T08:32:26;5.32;;;3.95;;
51048;SDS011;37084;55.228;36.450;2024-01-10T08:35:28;5.20;;;4.15;;
51048;SDS011;37084;55.228;36.450;2024-01-10T08:38:30;5.00;;;4.10;;
51048;SDS011;37084;55.228;36.450;2024-01-10T08:41:32;4.82;;;3.33;;
51048;SDS011;37084;55.228;36.450;2024-01-10T08:44:34;6.30;;;4.50;;
51048;SDS011;37084;55.228;36.450;2024-01-10T08:47:36;5.18;;;3.45;;
51048;SDS011;37084;55.228;36.450;2024-01-10T08:50:39;4.93;;;3.85;;
51048;SDS011;37084;55.228;36.450;2024-01-10T08:53:42;4.57;;;3.92;;
51048;SDS011;37084;55.228;36.450;2024-01-10T08:56:44;5.32;;;3.55;;
51048;SDS011;37084;55.228;36.450;2024-01-10T08:59:47;6.07;;;3.20;;
51048;SDS011;37084;55.228;36.450;2024-01-10T09:02:49;4.45;;;3.78;;
51048;SDS011;37084;55.228;36.450;2024-01-10T09:05:51;6.28;;;4.20;;
51048;SDS011;37084;55.228;36.450;2024-01-10T09:08:53;6.75;;;4.10;;
51048;SDS011;37084;55.228;36.450;2024-01-10T09:11:55;6.10;;;4.55;;
51048;SDS011;37084;55.228;36.450;2024-01-10T09:14:57;6.65;;;3.78;;
51048;SDS011;37084;55.228;36.450;2024-01-10T09:17:59;6.50;;;4.35;;
51048;SDS011;37084;55.228;36.450;2024-01-10T09:21:01;3.45;;;2.78;;
51048;SDS011;37084;55.228;36.450;2024-01-10T09:24:02;6.03;;;3.42;;
51048;SDS011;37084;55.228;36.450;2024-01-10T09:27:09;6.28;;;4.18;;
51048;SDS011;37084;55.228;36.450;2024-01-10T09:30:11;4.28;;;3.83;;
51048;SDS011;37084;55.228;36.450;2024-01-10T09:33:13;5.88;;;4.13;;
51048;SDS011;37084;55.228;36.450;2024-01-10T09:36:14;5.85;;;4.55;;
51048;SDS011;37084;55.228;36.450;2024-01-10T09:39:16;6.07;;;3.75;;
51048;SDS011;37084;55.228;36.450;2024-01-10T09:42:17;5.90;;;4.25;;
51048;SDS011;37084;55.228;36.450;2024-01-10T09:45:20;5.80;;;4.68;;
51048;SDS011;37084;55.228;36.450;2024-01-10T09:48:22;6.13;;;4.18;;
51048;SDS011;37084;55.228;36.450;2024-01-10T09:51:23;5.25;;;4.00;;
51048;SDS011;37084;55.228;36.450;2024-01-10T09:54:26;6.22;;;4.25;;
51048;SDS011;37084;55.228;36.450;2024-01-10T09:57:30;7.07;;;4.40;;
51048;SDS011;37084;55.228;36.450;2024-01-10T10:00:33;7.68;;;5.38;;
51048;SDS011;37084;55.228;36.450;2024-01-10T10:03:36;6.25;;;3.72;;
51048;SDS011;37084;55.228;36.450;2024-01-10T10:06:39;7.25;;;4.30;;
51048;SDS011;37084;55.228;36.450;2024-01-10T10:09:40;6.03;;;5.20;;
51048;SDS011;37084;55.228;36.450;2024-01-10T10:12:42;7.95;;;4.18;;
51048;SDS011;37084;55.228;36.450;2024-01-10T10:18:51;5.93;;;3.38;;
51048;SDS011;37084;55.228;36.450;2024-01-10T10:22:00;4.88;;;3.33;;
51048;SDS011;37084;55.228;36.450;2024-01-10T10:25:09;5.32;;;3.85;;
51048;SDS011;37084;55.228;36.450;2024-01-10T10:28:11;6.78;;;4.68;;
51048;SDS011;37084;55.228;36.450;2024-01-10T10:31:14;7.18;;;5.32;;
51048;SDS011;37084;55.228;36.450;2024-01-10T10:34:22;7.15;;;4.93;;
51048;SDS011;37084;55.228;36.450;2024-01-10T10:37:24;6.95;;;4.30;;
51048;SDS011;37084;55.228;36.450;2024-01-10T10:40:25;4.43;;;3.85;;
51048;SDS011;37084;55.228;36.450;2024-01-10T10:43:27;5.25;;;3.83;;
51048;SDS011;37084;55.228;36.450;2024-01-10T10:46:30;5.63;;;4.13;;
51048;SDS011;37084;55.228;36.450;2024-01-10T10:49:35;5.05;;;4.05;;
51048;SDS011;37084;55.228;36.450;2024-01-10T10:52:37;7.63;;;4.53;;
51048;SDS011;37084;55.228;36.450;2024-01-10T10:55:41;8.10;;;4.53;;
51048;SDS011;37084;55.228;36.450;2024-01-10T10:58:43;5.72;;;4.13;;
51048;SDS011;37084;55.228;36.450;2024-01-10T11:01:45;6.30;;;3.50;;
51048;SDS011;37084;55.228;36.450;2024-01-10T11:04:48;5.13;;;3.30;;
51048;SDS011;37084;55.228;36.450;2024-01-10T11:07:51;5.40;;;3.65;;
51048;SDS011;37084;55.228;36.450;2024-01-10T11:10:54;7.38;;;4.53;;
51048;SDS011;37084;55.228;36.450;2024-01-10T11:17:26;7.93;;;5.13;;
51048;SDS011;37084;55.228;36.450;2024-01-10T11:24:11;6.25;;;4.25;;
51048;SDS011;37084;55.228;36.450;2024-01-10T11:27:13;8.45;;;4.75;;
51048;SDS011;37084;55.228;36.450;2024-01-10T11:30:29;6.45;;;4.78;;
51048;SDS011;37084;55.228;36.450;2024-01-10T11:33:35;5.25;;;4.43;;
51048;SDS011;37084;55.228;36.450;2024-01-10T11:37:37;5.63;;;4.43;;
51048;SDS011;37084;55.228;36.450;2024-01-10T11:40:10;5.70;;;3.80;;
51048;SDS011;37084;55.228;36.450;2024-01-10T11:43:14;6.32;;;4.65;;
51048;SDS011;37084;55.228;36.450;2024-01-10T11:46:17;5.68;;;4.00;;
51048;SDS011;37084;55.228;36.450;2024-01-10T11:49:20;7.35;;;4.22;;
51048;SDS011;37084;55.228;36.450;2024-01-10T11:52:24;5.38;;;4.03;;
51048;SDS011;37084;55.228;36.450;2024-01-10T11:55:51;4.55;;;3.92;;
51048;SDS011;37084;55.228;36.450;2024-01-10T11:58:53;5.80;;;4.28;;
51048;SDS011;37084;55.228;36.450;2024-01-10T12:02:11;6.50;;;4.35;;
51048;SDS011;37084;55.228;36.450;2024-01-10T12:05:16;7.55;;;4.32;;
51048;SDS011;37084;55.228;36.450;2024-01-10T12:08:19;8.48;;;4.43;;
51048;SDS011;37084;55.228;36.450;2024-01-10T12:11:21;6.40;;;4.03;;
51048;SDS011;37084;55.228;36.450;2024-01-10T12:14:24;4.32;;;3.50;;
51048;SDS011;37084;55.228;36.450;2024-01-10T12:17:27;2.67;;;2.47;;
51048;SDS011;37084;55.228;36.450;2024-01-10T12:20:29;5.25;;;4.15;;
51048;SDS011;37084;55.228;36.450;2024-01-10T12:23:31;4.57;;;3.75;;
51048;SDS011;37084;55.228;36.450;2024-01-10T12:26:33;4.07;;;3.35;;
51048;SDS011;37084;55.228;36.450;2024-01-10T12:29:39;4.10;;;3.28;;
51048;SDS011;37084;55.228;36.450;2024-01-10T12:32:42;3.80;;;3.45;;
51048;SDS011;37084;55.228;36.450;2024-01-10T12:35:43;4.53;;;3.33;;
51048;SDS011;37084;55.228;36.450;2024-01-10T12:38:45;7.50;;;4.72;;
51048;SDS011;37084;55.228;36.450;2024-01-10T12:41:46;3.35;;;2.80;;
51048;SDS011;37084;55.228;36.450;2024-01-10T12:44:49;4.50;;;3.30;;
51048;SDS011;37084;55.228;36.450;2024-01-10T12:47:52;4.05;;;3.15;;
51048;SDS011;37084;55.228;36.450;2024-01-10T12:50:54;3.90;;;3.58;;
51048;SDS011;37084;55.228;36.450;2024-01-10T12:53:57;3.10;;;2.83;;
51048;SDS011;37084;55.228;36.450;2024-01-10T12:56:59;8.13;;;5.15;;
51048;SDS011;37084;55.228;36.450;2024-01-10T13:00:01;4.25;;;3.60;;
51048;SDS011;37084;55.228;36.450;2024-01-10T13:03:09;3.75;;;2.90;;
51048;SDS011;37084;55.228;36.450;2024-01-10T13:06:11;2.85;;;2.42;;
51048;SDS011;37084;55.228;36.450;2024-01-10T13:09:13;4.00;;;3.08;;
51048;SDS011;37084;55.228;36.450;2024-01-10T13:12:17;6.05;;;3.92;;
51048;SDS011;37084;55.228;36.450;2024-01-10T13:15:18;2.80;;;2.45;;
51048;SDS011;37084;55.228;36.450;2024-01-10T13:18:20;4.78;;;3.75;;
51048;SDS011;37084;55.228;36.450;2024-01-10T13:21:21;5.85;;;2.08;;
51048;SDS011;37084;55.228;36.450;2024-01-10T13:24:23;3.60;;;3.17;;
51048;SDS011;37084;55.228;36.450;2024-01-10T13:27:24;4.70;;;3.28;;
51048;SDS011;37084;55.228;36.450;2024-01-10T13:30:25;6.00;;;3.95;;
51048;SDS011;37084;55.228;36.450;2024-01-10T13:33:27;6.20;;;4.05;;
51048;SDS011;37084;55.228;36.450;2024-01-10T13:36:31;3.92;;;3.20;;
51048;SDS011;37084;55.228;36.450;2024-01-10T13:39:32;3.50;;;3.20;;
51048;SDS011;37084;55.228;36.450;2024-01-10T13:42:36;3.70;;;3.30;;
51048;SDS011;37084;55.228;36.450;2024-01-10T13:45:40;3.92;;;2.75;;
51048;SDS011;37084;55.228;36.450;2024-01-10T13:48:42;3.17;;;2.65;;
51048;SDS011;37084;55.228;36.450;2024-01-10T13:51:49;5.40;;;3.60;;
51048;SDS011;37084;55.228;36.450;2024-01-10T13:54:51;5.47;;;3.35;;
51048;SDS011;37084;55.228;36.450;2024-01-10T13:57:57;5.82;;;3.72;;
51048;SDS011;37084;55.228;36.450;2024-01-10T14:00:59;5.38;;;3.80;;
51048;SDS011;37084;55.228;36.450;2024-01-10T14:04:04;3.90;;;3.17;;
51048;SDS011;37084;55.228;36.450;2024-01-10T14:07:08;8.60;;;3.60;;
51048;SDS011;37084;55.228;36.450;2024-01-10T14:10:10;5.50;;;3.70;;
51048;SDS011;37084;55.228;36.450;2024-01-10T14:13:12;6.07;;;3.75;;
51048;SDS011;37084;55.228;36.450;2024-01-10T14:16:15;4.55;;;3.20;;
51048;SDS011;37084;55.228;36.450;2024-01-10T14:19:19;4.28;;;3.28;;
51048;SDS011;37084;55.228;36.450;2024-01-10T14:22:22;3.67;;;3.25;;
51048;SDS011;37084;55.228;36.450;2024-01-10T14:25:26;5.88;;;3.15;;
51048;SDS011;37084;55.228;36.450;2024-01-10T14:28:30;4.00;;;3.33;;
51048;SDS011;37084;55.228;36.450;2024-01-10T14:31:31;3.95;;;3.42;;
51048;SDS011;37084;55.228;36.450;2024-01-10T14:34:35;3.50;;;3.20;;
51048;SDS011;37084;55.228;36.450;2024-01-10T14:37:37;4.18;;;3.35;;
51048;SDS011;37084;55.228;36.450;2024-01-10T14:40:40;3.38;;;3.08;;
51048;SDS011;37084;55.228;36.450;2024-01-10T14:43:42;5.15;;;3.42;;
51048;SDS011;37084;55.228;36.450;2024-01-10T14:46:44;4.60;;;3.47;;
51048;SDS011;37084;55.228;36.450;2024-01-10T14:49:50;5.45;;;3.33;;
51048;SDS011;37084;55.228;36.450;2024-01-10T14:52:51;5.85;;;3.60;;
51048;SDS011;37084;55.228;36.450;2024-01-10T14:55:55;4.47;;;3.28;;
51048;SDS011;37084;55.228;36.450;2024-01-10T14:58:57;5.68;;;3.03;;
51048;SDS011;37084;55.228;36.450;2024-01-10T15:01:59;5.57;;;2.83;;
51048;SDS011;37084;55.228;36.450;2024-01-10T15:05:03;3.30;;;3.03;;
51048;SDS011;37084;55.228;36.450;2024-01-10T15:08:07;5.32;;;3.33;;
51048;SDS011;37084;55.228;36.450;2024-01-10T15:14:19;6.47;;;2.60;;
51048;SDS011;37084;55.228;36.450;2024-01-10T15:17:23;5.03;;;4.47;;
51048;SDS011;37084;55.228;36.450;2024-01-10T15:20:24;3.80;;;3.38;;
51048;SDS011;37084;55.228;36.450;2024-01-10T15:23:27;5.53;;;4.03;;
51048;SDS011;37084;55.228;36.450;2024-01-10T15:26:28;4.80;;;3.55;;
51048;SDS011;37084;55.228;36.450;2024-01-10T15:29:30;5.03;;;2.42;;
51048;SDS011;37084;55.228;36.450;2024-01-10T15:32:32;3.20;;;2.63;;
51048;SDS011;37084;55.228;36.450;2024-01-10T15:35:35;5.93;;;2.95;;
51048;SDS011;37084;55.228;36.450;2024-01-10T15:38:36;6.25;;;3.47;;
51048;SDS011;37084;55.228;36.450;2024-01-10T15:41:41;5.72;;;3.63;;
51048;SDS011;37084;55.228;36.450;2024-01-10T15:44:43;4.55;;;3.40;;
51048;SDS011;37084;55.228;36.450;2024-01-10T15:47:48;4.03;;;3.47;;
51048;SDS011;37084;55.228;36.450;2024-01-10T15:50:50;4.85;;;3.92;;
51048;SDS011;37084;55.228;36.450;2024-01-10T15:53:51;6.22;;;3.90;;
51048;SDS011;37084;55.228;36.450;2024-01-10T15:56:58;4.55;;;3.85;;
51048;SDS011;37084;55.228;36.450;2024-01-10T15:59:59;4.97;;;3.72;;
51048;SDS011;37084;55.228;36.450;2024-01-10T16:03:09;3.15;;;2.95;;
51048;SDS011;37084;55.228;36.450;2024-01-10T16:06:13;5.72;;;3.22;;
51048;SDS011;37084;55.228;36.450;2024-01-10T16:09:21;3.63;;;3.30;;
51048;SDS011;37084;55.228;36.450;2024-01-10T16:12:25;5.53;;;4.03;;
51048;SDS011;37084;55.228;36.450;2024-01-10T16:15:30;6.72;;;3.83;;
51048;SDS011;37084;55.228;36.450;2024-01-10T16:18:37;6.10;;;3.65;;
51048;SDS011;37084;55.228;36.450;2024-01-10T16:21:39;5.90;;;4.18;;
51048;SDS011;37084;55.228;36.450;2024-01-10T16:24:42;4.30;;;3.17;;
51048;SDS011;37084;55.228;36.450;2024-01-10T16:27:47;3.65;;;2.38;;
51048;SDS011;37084;55.228;36.450;2024-01-10T16:30:49;4.13;;;3.22;;
51048;SDS011;37084;55.228;36.450;2024-01-10T16:33:52;7.13;;;3.20;;
51048;SDS011;37084;55.228;36.450;2024-01-10T16:36:57;5.60;;;3.75;;
51048;SDS011;37084;55.228;36.450;2024-01-10T16:40:01;4.88;;;3.30;;
51048;SDS011;37084;55.228;36.450;2024-01-10T16:43:03;2.63;;;2.42;;
51048;SDS011;37084;55.228;36.450;2024-01-10T16:46:09;3.65;;;3.30;;
51048;SDS011;37084;55.228;36.450;2024-01-10T16:49:10;3.97;;;3.28;;
51048;SDS011;37084;55.228;36.450;2024-01-10T16:52:12;3.53;;;3.22;;
51048;SDS011;37084;55.228;36.450;2024-01-10T16:55:13;4.07;;;3.30;;
51048;SDS011;37084;55.228;36.450;2024-01-10T16:58:15;5.45;;;3.75;;
51048;SDS011;37084;55.228;36.450;2024-01-10T17:01:22;3.83;;;3.22;;
51048;SDS011;37084;55.228;36.450;2024-01-10T17:04:23;6.78;;;2.70;;
51048;SDS011;37084;55.228;36.450;2024-01-10T17:07:25;3.38;;;1.92;;
51048;SDS011;37084;55.228;36.450;2024-01-10T17:10:30;8.10;;;4.55;;
51048;SDS011;37084;55.228;36.450;2024-01-10T17:13:36;3.80;;;3.35;;
51048;SDS011;37084;55.228;36.450;2024-01-10T17:16:39;8.57;;;6.57;;
51048;SDS011;37084;55.228;36.450;2024-01-10T17:19:40;4.72;;;3.38;;
51048;SDS011;37084;55.228;36.450;2024-01-10T17:22:42;4.20;;;2.88;;
51048;SDS011;37084;55.228;36.450;2024-01-10T17:25:45;6.80;;;3.05;;
51048;SDS011;37084;55.228;36.450;2024-01-10T17:28:47;6.20;;;3.28;;
51048;SDS011;37084;55.228;36.450;2024-01-10T17:31:50;5.75;;;3.70;;
51048;SDS011;37084;55.228;36.450;2024-01-10T17:34:51;3.97;;;3.08;;
51048;SDS011;37084;55.228;36.450;2024-01-10T17:37:54;6.78;;;3.90;;
51048;SDS011;37084;55.228;36.450;2024-01-10T17:40:56;7.13;;;4.28;;
51048;SDS011;37084;55.228;36.450;2024-01-10T17:44:03;5.38;;;3.85;;
51048;SDS011;37084;55.228;36.450;2024-01-10T17:47:09;4.75;;;3.70;;
51048;SDS011;37084;55.228;36.450;2024-01-10T17:50:14;3.92;;;3.63;;
51048;SDS011;37084;55.228;36.450;2024-01-10T17:53:18;3.13;;;2.75;;
51048;SDS011;37084;55.228;36.450;2024-01-10T17:56:24;5.63;;;4.88;;
51048;SDS011;37084;55.228;36.450;2024-01-10T17:59:29;4.20;;;3.15;;
51048;SDS011;37084;55.228;36.450;2024-01-10T18:02:31;4.32;;;3.80;;
51048;SDS011;37084;55.228;36.450;2024-01-10T18:05:33;4.35;;;3.55;;
51048;SDS011;37084;55.228;36.450;2024-01-10T18:08:39;5.43;;;4.28;;
51048;SDS011;37084;55.228;36.450;2024-01-10T18:11:40;6.70;;;4.60;;
51048;SDS011;37084;55.228;36.450;2024-01-10T18:14:42;4.82;;;2.90;;